Timmins/Victor M. Power
CYTS : now visible

Airfield :











YOU CAN JOIN US ON...

 
LOGIN :

Register | Disclaimer

   EN    FR    IT 

 









Legend :    VFR   Marginal VFR   IFR   Intensive IFR   Very Intensive IFR
Visi :
Ceiling :
>= 8 km
>= 3000ft
5 to 8 km
1000 to 3000 ft
1500m to 5 km
500 to 1000 ft
800 to 1500m
200 to 500 ft
< 800m
< 200 ft
Symbols :   Thunderstorms  Fog  Heavy snow  Heavy precipitations  Wind > 20 kt






- Airport Elevation : 967 ft
- IATA code : YTS


CYTS - Timmins/Victor M. Power

CURRENT METAR :
  • 231400Z 00000KT 3SM -RA FEW013 OVC040 06/06 A2953 RMK SC2SC6 SLP011

EXPIRED METARs :
  • 231300Z 20004KT 9SM -RA FEW015 OVC040 06/05 A2953 RMK SC2SC6 SLP009
  • 231200Z 21005KT 15SM -RA FEW015 BKN070 OVC120 08/M00 A2953 RMK SF1AC7AC1 SF TR -RA INTMT SLP008
  • 231136Z 20008KT 10SM -RA OVC063 08/M02 A2953 RMK SC8 SLP008
  • 231100Z 18004KT 15SM BKN080 OVC120 05/M02 A2953 RMK AC5AC3 SLP008
  • 231000Z 19007KT 15SM OVC140 07/M03 A2951 RMK AC8 SLP003
  • 230900Z 20008KT 15SM SCT110 BKN130 08/M03 A2952 RMK AC3AC2 SLP006

TAF TAF CYTS
Valid from the 23 at 14:00 until the 24 at 02:00 UTC


231340Z 2314/2402 20008KT P6SM OVC040
TEMPO 2314/2315 5SM -RA BR OVC015
FM231500 19008KT 5SM -RA BR OVC015
TEMPO 2315/2318 P6SM -RA OVC025
BECMG 2316/2318 01015G25KT
FM231800 01015G25KT 2SM -SNRA BR OVC015
TEMPO 2318/2321 P6SM -RA OVC025
PROB30 2318/2321 1 1/2SM -SN
FM232100 01015G25KT 5SM -SN OVC015
TEMPO 2321/2402 P6SM NSW OVC025
BECMG 2322/2324 01012G22KT RMK NXT FCST BY 232000Z
CZYZ FIR / North America



MET'MAP, your aeronautical weather chart ! - Copyright ORBIFLY December 2007 - Disclaimer

ORBIFLY MET'MAP TEAM :

Programming & Development : Alexandra Zaïnal
Original concept : Baudouin d'Aumeries
Technical & hardware support : Manuel Goepfert
Assistance : Marc-Olivier Méhu




SOURCES & CREDITS :

   NOAA       Earth
Advisory